Time;durP1;ratioP1;P1;durP2;ratioP2;P2;SDS_P1;SDS_P2;PMS_P1;PMS_P2;Temp;Humidity;BMP_temperature;BMP_pressure;BME280_temperature;BME280_humidity;BME280_pressure;Samples;Min_cycle;Max_cycle;Signal;HPM_P1;HPM_P2
2023/01/31 00:01:15;;;;;;;65.80;31.30;;;;;;;-0.18;98.38;99614.44;5081479;28;20537;-28
2023/01/31 00:03:42;;;;;;;63.92;28.35;;;;;;;-0.57;99.35;99578.28;5075350;28;20039;-27
2023/01/31 00:06:17;;;;;;;54.97;24.27;;;;;;;-0.49;99.64;99614.16;5076433;28;20036;-27
2023/01/31 00:08:43;;;;;;;52.45;23.73;;;;;;;-0.43;99.91;99616.97;5070026;28;20035;-28
2023/01/31 00:11:10;;;;;;;82.35;41.85;;;;;;;-0.19;97.81;99612.78;5069891;28;20680;-28
2023/01/31 00:13:35;;;;;;;83.57;41.80;;;;;;;-0.31;98.24;99603.56;5069548;28;20408;-26
2023/01/31 00:16:02;;;;;;;43.17;19.58;;;;;;;-0.33;96.94;99601.09;5070240;28;20021;-27
2023/01/31 00:18:28;;;;;;;48.72;20.98;;;;;;;-0.25;98.72;99623.88;5069925;28;20036;-27
2023/01/31 00:20:53;;;;;;;40.38;17.92;;;;;;;-0.10;96.67;99631.94;5069694;28;20631;-27
2023/01/31 00:23:19;;;;;;;41.92;18.85;;;;;;;-0.05;97.09;99634.91;5069750;28;20029;-26
2023/01/31 00:25:44;;;;;;;39.55;18.08;;;;;;;0.23;94.48;99626.78;5069562;28;20210;-28
2023/01/31 00:28:09;;;;;;;48.88;19.90;;;;;;;0.17;93.92;99612.50;5070226;28;20050;-27
2023/01/31 00:30:35;;;;;;;50.42;20.30;;;;;;;0.21;94.33;99608.59;5069614;28;20082;-28
2023/01/31 00:33:00;;;;;;;57.45;26.90;;;;;;;0.38;93.69;99620.69;5070331;28;20021;-27
2023/01/31 00:35:26;;;;;;;54.20;25.42;;;;;;;0.21;94.67;99619.06;5069771;28;20032;-28
2023/01/31 00:37:51;;;;;;;47.35;23.02;;;;;;;0.08;96.40;99623.97;5068189;28;20079;-25
2023/01/31 00:40:17;;;;;;;52.95;22.27;;;;;;;-0.38;97.14;99586.88;5069270;28;20024;-27
2023/01/31 00:42:43;;;;;;;51.55;21.83;;;;;;;-0.20;97.18;99629.50;5070114;28;20031;-28
2023/01/31 00:45:09;;;;;;;54.63;21.40;;;;;;;-0.42;97.46;99607.31;5069404;28;20078;-28
2023/01/31 00:47:34;;;;;;;57.28;25.55;;;;;;;-0.30;96.92;99594.75;5069132;28;20024;-27
2023/01/31 00:49:59;;;;;;;51.42;23.38;;;;;;;-0.11;97.42;99620.66;5069524;28;20027;-29
2023/01/31 00:52:25;;;;;;;84.47;40.88;;;;;;;0.06;96.25;99620.69;5051075;28;20119;-29
2023/01/31 00:54:50;;;;;;;56.88;28.08;;;;;;;0.13;96.33;99627.75;5069011;28;20025;-28
2023/01/31 00:57:16;;;;;;;48.60;20.40;;;;;;;0.05;95.26;99593.66;5069140;28;20028;-27
2023/01/31 00:59:41;;;;;;;42.20;19.27;;;;;;;0.14;94.88;99626.78;5070104;28;20095;-27
2023/01/31 01:02:06;;;;;;;42.67;17.85;;;;;;;0.25;93.98;99630.06;5081888;28;20060;-28
2023/01/31 01:04:32;;;;;;;48.00;23.88;;;;;;;0.08;95.54;99619.56;5069466;28;20042;-27
2023/01/31 01:06:57;;;;;;;46.95;21.50;;;;;;;0.10;94.41;99595.78;5067821;28;20047;-27
2023/01/31 01:09:24;;;;;;;45.63;19.50;;;;;;;0.30;94.46;99606.78;5068949;28;20056;-28
2023/01/31 01:11:49;;;;;;;44.78;20.08;;;;;;;0.40;94.07;99603.00;5067923;28;20124;-27
2023/01/31 01:14:15;;;;;;;41.88;18.90;;;;;;;0.44;95.41;99597.44;5069134;28;20103;-29
2023/01/31 01:16:41;;;;;;;43.17;16.85;;;;;;;0.55;94.17;99602.34;5069331;28;20044;-29
2023/01/31 01:19:14;;;;;;;45.25;19.98;;;;;;;0.71;93.03;99599.69;5069018;28;20028;-28
2023/01/31 01:21:40;;;;;;;42.10;18.60;;;;;;;0.51;94.17;99593.16;5069129;28;20403;-27
2023/01/31 01:24:15;;;;;;;44.50;19.05;;;;;;;0.33;95.73;99607.28;5068741;28;20025;-27
2023/01/31 01:26:41;;;;;;;48.92;22.65;;;;;;;0.27;96.22;99592.19;5069266;28;20106;-28
2023/01/31 01:29:07;;;;;;;54.17;24.75;;;;;;;0.19;95.47;99552.84;5051053;28;20029;-27
2023/01/31 01:31:33;;;;;;;51.00;23.25;;;;;;;0.24;96.09;99561.03;5068960;28;20382;-29
2023/01/31 01:34:10;;;;;;;48.50;21.75;;;;;;;0.30;97.10;99576.13;5068940;28;20029;-29
2023/01/31 01:36:36;;;;;;;50.08;21.10;;;;;;;0.04;97.38;99564.97;5068840;28;20060;-27
2023/01/31 01:39:05;;;;;;;43.45;20.73;;;;;;;-0.05;98.17;99577.25;5069240;28;20060;-29
2023/01/31 01:41:32;;;;;;;44.95;19.75;;;;;;;-0.06;98.26;99586.94;5068673;28;20844;-28
2023/01/31 01:43:59;;;;;;;40.58;17.27;;;;;;;-0.08;96.55;99570.53;5068893;28;20492;-28
2023/01/31 01:46:30;;;;;;;34.78;16.90;;;;;;;0.16;96.12;99589.88;5068795;28;20480;-32
2023/01/31 01:49:03;;;;;;;37.10;16.08;;;;;;;0.12;95.66;99557.94;5068693;28;20112;-28
2023/01/31 01:51:31;;;;;;;34.85;14.95;;;;;;;0.36;94.68;99585.13;5068649;28;20496;-28
2023/01/31 01:54:02;;;;;;;37.58;16.88;;;;;;;0.43;94.23;99585.28;5069261;28;20029;-26
2023/01/31 01:56:35;;;;;;;39.17;16.77;;;;;;;0.31;94.99;99572.53;5068735;28;20587;-26
2023/01/31 01:59:06;;;;;;;70.15;25.67;;;;;;;0.45;95.66;99588.56;5077869;28;20020;-28
2023/01/31 02:01:35;;;;;;;71.55;24.98;;;;;;;0.48;95.44;99583.00;5081690;28;20036;-27
2023/01/31 02:04:04;;;;;;;80.55;25.15;;;;;;;0.46;95.62;99569.22;5056873;28;20412;-27
2023/01/31 02:06:30;;;;;;;59.95;21.15;;;;;;;0.48;95.07;99569.88;5068824;28;20111;-31
2023/01/31 02:08:55;;;;;;;47.95;19.60;;;;;;;0.56;94.30;99569.88;5068704;28;20128;-29
2023/01/31 02:11:24;;;;;;;43.55;17.98;;;;;;;0.62;94.85;99560.53;5068349;28;20409;-28
2023/01/31 02:13:55;;;;;;;42.10;17.27;;;;;;;0.52;94.78;99537.09;5068434;28;20029;-31
2023/01/31 02:16:20;;;;;;;36.72;15.18;;;;;;;0.74;94.11;99560.00;5050761;28;20102;-27
2023/01/31 02:18:47;;;;;;;40.65;16.90;;;;;;;0.77;94.47;99551.78;5067340;28;20033;-27
2023/01/31 02:21:38;;;;;;;37.40;16.48;;;;;;;0.84;93.83;99556.34;5068365;28;20036;-32
2023/01/31 02:24:26;;;;;;;44.33;17.38;;;;;;;0.97;93.42;99551.41;5068894;28;20555;-28
2023/01/31 02:27:22;;;;;;;33.47;15.82;;;;;;;0.62;94.45;99521.97;5072277;28;20420;-27
2023/01/31 02:30:12;;;;;;;39.45;16.05;;;;;;;0.70;93.71;99550.81;5072118;28;20032;-27
2023/01/31 02:32:59;;;;;;;69.47;27.33;;;;;;;0.60;94.64;99539.69;5071906;28;20720;-27
2023/01/31 02:35:36;;;;;;;72.78;28.67;;;;;;;0.60;94.91;99537.06;5071810;28;20132;-27
2023/01/31 02:38:22;;;;;;;57.97;23.67;;;;;;;0.66;96.20;99538.22;5071869;28;20059;-26
2023/01/31 02:40:57;;;;;;;80.78;28.88;;;;;;;0.55;96.31;99552.47;5071189;28;20045;-27
2023/01/31 02:47:16;;;;;;;54.53;22.17;;;;;;;0.56;96.69;99543.63;5071622;28;20077;-25
2023/01/31 02:50:10;;;;;;;45.95;21.15;;;;;;;0.40;97.18;99531.34;5071980;28;20025;-29
2023/01/31 02:52:51;;;;;;;49.42;21.90;;;;;;;0.44;97.84;99531.84;5070890;28;20048;-27
2023/01/31 02:58:26;;;;;;;71.90;28.42;;;;;;;0.69;94.88;99551.78;5089270;28;20035;-29
2023/01/31 03:00:56;;;;;;;49.83;22.30;;;;;;;0.58;95.08;99533.78;5090559;28;20046;-27
2023/01/31 03:03:26;;;;;;;45.20;21.17;;;;;;;0.48;95.02;99517.41;5084821;28;20036;-29
2023/01/31 03:06:34;;;;;;;48.08;21.02;;;;;;;0.76;94.06;99550.16;5071995;28;20777;-26
2023/01/31 03:09:21;;;;;;;48.03;19.08;;;;;;;0.75;94.71;99542.44;5053343;28;20427;-29
2023/01/31 03:12:15;;;;;;;47.72;21.90;;;;;;;0.62;95.88;99539.53;5071183;28;20031;-30
2023/01/31 03:15:18;;;;;;;45.50;19.65;;;;;;;0.70;94.83;99550.00;5078368;28;20036;-28
2023/01/31 03:17:52;;;;;;;47.03;20.13;;;;;;;0.87;95.01;99545.53;5070111;28;20021;-28
2023/01/31 03:20:18;;;;;;;45.33;18.77;;;;;;;0.84;94.54;99551.09;5053063;28;20036;-30
2023/01/31 03:22:47;;;;;;;49.13;20.88;;;;;;;0.74;95.25;99538.19;5071064;28;20028;-28
2023/01/31 03:25:16;;;;;;;104.15;45.58;;;;;;;0.78;96.36;99536.88;5071387;28;20093;-30
2023/01/31 03:27:46;;;;;;;89.25;39.03;;;;;;;0.85;96.34;99547.50;5052950;28;20111;-28
2023/01/31 03:30:16;;;;;;;83.35;34.97;;;;;;;0.81;97.31;99536.53;5071092;28;20420;-29
2023/01/31 03:32:46;;;;;;;74.25;33.80;;;;;;;0.63;96.30;99549.03;5070802;28;20020;-28
2023/01/31 03:35:12;;;;;;;204.02;82.20;;;;;;;0.72;96.50;99548.84;5070632;28;20507;-30
2023/01/31 03:37:54;;;;;;;218.07;76.38;;;;;;;0.55;96.40;99521.00;5069648;28;20060;-26
2023/01/31 03:40:30;;;;;;;105.05;42.00;;;;;;;0.50;97.55;99512.81;5070682;28;20032;-27
2023/01/31 03:43:00;;;;;;;53.63;24.05;;;;;;;0.68;97.63;99531.81;5052848;28;20458;-30
2023/01/31 03:45:45;;;;;;;45.42;19.52;;;;;;;0.79;96.73;99539.31;5070440;28;20040;-26
2023/01/31 03:48:16;;;;;;;47.80;20.38;;;;;;;0.70;96.98;99537.69;5070795;28;20481;-29
2023/01/31 03:50:57;;;;;;;51.13;21.90;;;;;;;0.49;96.85;99495.44;5070509;28;20090;-27
2023/01/31 03:53:36;;;;;;;48.85;22.60;;;;;;;0.77;97.82;99541.28;5073222;28;20032;-27
2023/01/31 03:56:19;;;;;;;47.70;23.30;;;;;;;0.70;97.33;99540.31;5082729;28;20400;-29
2023/01/31 03:58:49;;;;;;;42.33;18.55;;;;;;;0.67;97.13;99539.84;5086471;28;20484;-27
2023/01/31 04:01:17;;;;;;;76.32;40.45;;;;;;;0.83;97.02;99544.22;5089076;28;20025;-28
2023/01/31 04:03:50;;;;;;;49.25;23.15;;;;;;;0.64;97.07;99546.25;5084178;28;20036;-27
2023/01/31 04:06:16;;;;;;;42.33;20.77;;;;;;;0.69;97.24;99548.38;5054781;28;20056;-27
2023/01/31 04:08:42;;;;;;;41.97;19.02;;;;;;;0.52;97.37;99518.72;5070218;28;20480;-29
2023/01/31 04:11:12;;;;;;;45.17;19.20;;;;;;;0.51;98.08;99520.53;5070051;28;20254;-28
2023/01/31 04:13:38;;;;;;;43.25;20.52;;;;;;;0.52;98.96;99542.34;5070075;28;20058;-28
2023/01/31 04:16:04;;;;;;;40.80;19.15;;;;;;;0.56;97.07;99523.47;5070006;28;20033;-27
2023/01/31 04:18:29;;;;;;;40.28;18.90;;;;;;;0.50;98.78;99518.06;5070083;28;20035;-27
2023/01/31 04:20:54;;;;;;;39.42;18.60;;;;;;;0.68;98.24;99542.31;5069857;28;20033;-28
2023/01/31 04:23:20;;;;;;;47.08;19.05;;;;;;;0.57;98.60;99540.00;5076332;28;20103;-27
2023/01/31 04:25:45;;;;;;;42.08;17.60;;;;;;;0.52;99.04;99548.38;5069881;28;20024;-28
2023/01/31 04:28:11;;;;;;;41.10;18.25;;;;;;;0.51;100.00;99562.50;5051853;28;20069;-30
2023/01/31 04:30:36;;;;;;;41.28;18.88;;;;;;;0.59;98.84;99561.66;5051901;28;20024;-28
2023/01/31 04:33:02;;;;;;;35.38;16.92;;;;;;;0.55;99.02;99557.72;5069699;28;20550;-29
2023/01/31 04:35:27;;;;;;;39.58;18.75;;;;;;;0.55;98.20;99544.59;5069440;28;20031;-27
2023/01/31 04:37:53;;;;;;;36.97;16.08;;;;;;;0.55;99.06;99557.72;5069642;28;20083;-27
2023/01/31 04:40:18;;;;;;;38.17;17.05;;;;;;;0.56;98.88;99556.75;5051701;28;20060;-28
2023/01/31 04:42:44;;;;;;;44.13;18.33;;;;;;;0.64;98.02;99558.56;5069614;28;20024;-26
2023/01/31 04:45:10;;;;;;;47.25;21.63;;;;;;;0.44;98.34;99539.72;5069557;28;20062;-25
2023/01/31 04:47:35;;;;;;;50.00;26.05;;;;;;;0.63;96.49;99568.22;5068919;28;20498;-32
2023/01/31 04:50:01;;;;;;;45.45;24.88;;;;;;;0.60;96.27;99556.25;5069467;28;20033;-27
2023/01/31 04:52:26;;;;;;;45.80;20.83;;;;;;;0.66;96.24;99564.47;5080079;28;20424;-26
2023/01/31 04:54:52;;;;;;;45.85;18.08;;;;;;;0.68;94.17;99571.16;5079559;28;20432;-26
2023/01/31 04:57:17;;;;;;;42.80;20.42;;;;;;;0.55;96.77;99569.06;5069105;28;20071;-26
2023/01/31 04:59:42;;;;;;;43.65;21.42;;;;;;;0.45;98.00;99551.84;5069381;28;20104;-28
2023/01/31 05:02:08;;;;;;;45.10;22.50;;;;;;;0.72;96.72;99569.84;5069694;28;20043;-26
2023/01/31 05:04:33;;;;;;;52.67;25.50;;;;;;;0.80;95.63;99572.47;5076601;28;20035;-27
2023/01/31 05:06:59;;;;;;;47.45;22.73;;;;;;;0.58;96.02;99558.22;5073113;28;20032;-29
2023/01/31 05:09:24;;;;;;;42.90;20.08;;;;;;;0.77;92.07;99551.78;5068979;28;20128;-27
2023/01/31 05:11:50;;;;;;;43.15;21.08;;;;;;;0.98;93.84;99566.16;5069259;28;20028;-27
2023/01/31 05:14:16;;;;;;;41.85;19.65;;;;;;;0.75;95.70;99559.00;5069325;28;20454;-28
2023/01/31 05:16:46;;;;;;;39.95;18.10;;;;;;;0.75;95.23;99550.31;5068973;28;20551;-29
2023/01/31 05:19:15;;;;;;;46.00;21.73;;;;;;;0.87;93.35;99556.03;5050869;28;20034;-27
2023/01/31 05:21:59;;;;;;;47.47;21.38;;;;;;;1.18;91.04;99580.53;5069142;28;20028;-27
2023/01/31 05:24:29;;;;;;;55.80;24.10;;;;;;;1.16;91.51;99565.94;5069085;28;20067;-29
2023/01/31 05:26:57;;;;;;;34.95;16.25;;;;;;;1.50;86.55;99591.91;5068986;28;20047;-29
2023/01/31 05:29:26;;;;;;;28.98;13.25;;;;;;;1.41;86.25;99577.19;5050661;28;20060;-30
2023/01/31 05:31:53;;;;;;;27.17;12.60;;;;;;;1.71;83.55;99582.59;5068560;28;20123;-30
2023/01/31 05:34:18;;;;;;;24.90;12.48;;;;;;;1.71;83.75;99599.19;5068822;28;20539;-28
2023/01/31 05:36:43;;;;;;;24.98;11.82;;;;;;;1.75;81.91;99595.22;5068741;28;20140;-28
2023/01/31 05:39:09;;;;;;;30.67;12.95;;;;;;;1.60;83.59;99582.00;5050804;28;20090;-28
2023/01/31 05:41:34;;;;;;;24.05;11.52;;;;;;;1.74;85.07;99608.56;5068347;28;20029;-28
2023/01/31 05:44:00;;;;;;;86.80;30.10;;;;;;;1.70;86.18;99605.44;5068713;28;20054;-27
2023/01/31 05:46:26;;;;;;;48.00;19.52;;;;;;;1.78;85.35;99607.22;5068641;28;20028;-28
2023/01/31 05:48:51;;;;;;;165.02;77.22;;;;;;;1.44;84.78;99589.97;5073665;28;20434;-27
2023/01/31 05:51:16;;;;;;;60.28;28.75;;;;;;;1.27;85.97;99599.72;5082105;28;20020;-25
2023/01/31 05:53:42;;;;;;;51.42;22.33;;;;;;;1.57;85.81;99620.94;5068563;28;20029;-27
2023/01/31 05:56:07;;;;;;;47.35;23.77;;;;;;;1.56;85.30;99593.03;5068733;28;20127;-27
2023/01/31 05:58:33;;;;;;;42.72;24.33;;;;;;;1.76;85.00;99611.84;5084651;28;20024;-28
2023/01/31 06:00:58;;;;;;;36.83;18.63;;;;;;;1.76;85.61;99622.34;5092109;28;20028;-25
2023/01/31 06:03:24;;;;;;;28.50;15.43;;;;;;;1.52;87.28;99597.00;5090157;28;20028;-27
2023/01/31 06:05:49;;;;;;;27.75;13.70;;;;;;;1.84;86.64;99622.31;5065175;28;20054;-28
2023/01/31 06:08:14;;;;;;;23.13;10.52;;;;;;;1.85;86.05;99602.09;5072284;28;20024;-29
2023/01/31 06:10:40;;;;;;;24.10;9.20;;;;;;;1.94;84.95;99617.63;5072422;28;20544;-27
2023/01/31 06:13:06;;;;;;;21.70;12.73;;;;;;;1.96;83.52;99609.56;5072335;28;20500;-27
2023/01/31 06:15:32;;;;;;;24.73;12.13;;;;;;;1.96;82.94;99620.06;5071755;28;20484;-28
2023/01/31 06:17:58;;;;;;;15.75;7.05;;;;;;;1.99;81.93;99612.66;5072045;28;20071;-27
2023/01/31 06:20:24;;;;;;;21.05;7.55;;;;;;;2.20;81.72;99632.25;5072241;28;20518;-28
2023/01/31 06:22:50;;;;;;;19.05;6.95;;;;;;;1.95;79.38;99608.75;5072076;28;20021;-28
2023/01/31 06:25:16;;;;;;;15.30;5.63;;;;;;;2.25;79.64;99629.94;5071968;28;20032;-26
2023/01/31 06:27:41;;;;;;;19.20;8.10;;;;;;;2.33;79.66;99648.28;5072048;28;20028;-28
2023/01/31 06:30:08;;;;;;;16.60;6.70;;;;;;;2.46;78.42;99647.69;5071957;28;20520;-31
2023/01/31 06:32:33;;;;;;;14.93;6.85;;;;;;;2.47;77.43;99638.78;5071684;28;20024;-27
2023/01/31 06:34:59;;;;;;;17.50;6.47;;;;;;;2.25;78.71;99602.78;5071951;28;20389;-27
2023/01/31 06:37:24;;;;;;;16.77;6.65;;;;;;;2.34;76.13;99602.53;5071201;28;20049;-27
2023/01/31 06:39:50;;;;;;;10.43;5.78;;;;;;;2.50;76.70;99638.44;5053620;28;20042;-28
2023/01/31 06:42:15;;;;;;;14.80;6.70;;;;;;;2.57;77.66;99636.72;5071689;28;20029;-27
2023/01/31 06:44:40;;;;;;;10.73;5.25;;;;;;;2.57;76.15;99649.91;5071703;28;20101;-28
2023/01/31 06:47:06;;;;;;;13.20;5.85;;;;;;;2.60;76.77;99651.38;5082086;28;20058;-27
2023/01/31 06:49:31;;;;;;;14.90;6.55;;;;;;;2.63;76.15;99648.38;5083299;28;20045;-27
2023/01/31 06:51:57;;;;;;;10.35;4.70;;;;;;;2.66;76.57;99653.31;5050866;28;20039;-25
2023/01/31 06:54:22;;;;;;;15.13;6.93;;;;;;;2.59;75.82;99653.16;5083726;28;20028;-25
2023/01/31 06:56:47;;;;;;;15.02;6.57;;;;;;;2.81;75.39;99671.75;5071419;28;20024;-27
2023/01/31 06:59:13;;;;;;;14.48;6.22;;;;;;;2.81;75.42;99663.84;5071203;28;20435;-31
2023/01/31 07:01:38;;;;;;;15.52;6.72;;;;;;;2.75;75.92;99652.22;5075409;28;20069;-26
2023/01/31 07:04:04;;;;;;;20.92;8.88;;;;;;;2.94;75.41;99661.44;5080518;28;20043;-30
2023/01/31 07:06:29;;;;;;;17.90;7.43;;;;;;;3.00;75.35;99667.78;5071361;28;20025;-28
2023/01/31 07:08:55;;;;;;;14.80;6.03;;;;;;;3.00;73.93;99660.72;5071661;28;20428;-28
2023/01/31 07:11:20;;;;;;;13.55;5.85;;;;;;;2.90;74.07;99649.63;5070670;28;20059;-27
2023/01/31 07:13:46;;;;;;;12.23;5.75;;;;;;;3.02;73.93;99663.16;5071400;28;20024;-28
2023/01/31 07:16:16;;;;;;;15.75;7.00;;;;;;;3.11;74.28;99677.91;5071023;28;20070;-28
2023/01/31 07:18:42;;;;;;;15.95;6.00;;;;;;;3.37;72.53;99681.91;5071413;28;20111;-28
2023/01/31 07:21:07;;;;;;;14.05;5.45;;;;;;;3.34;72.30;99692.84;5072161;28;20033;-28
2023/01/31 07:23:32;;;;;;;11.73;4.80;;;;;;;3.45;72.33;99687.09;5052926;28;20089;-26
2023/01/31 07:26:02;;;;;;;16.13;6.22;;;;;;;3.45;73.16;99673.91;5070856;28;20028;-27
2023/01/31 07:28:28;;;;;;;10.35;4.80;;;;;;;3.54;71.96;99688.66;5070805;28;20024;-28
2023/01/31 07:30:53;;;;;;;11.80;5.13;;;;;;;3.61;72.29;99697.47;5070326;28;20049;-26
2023/01/31 07:33:19;;;;;;;11.32;5.05;;;;;;;3.63;70.54;99684.91;5070674;28;20123;-27
2023/01/31 07:35:44;;;;;;;10.63;4.03;;;;;;;3.41;71.06;99683.19;5052712;28;20021;-27
2023/01/31 07:38:09;;;;;;;8.27;4.72;;;;;;;3.40;71.69;99686.84;5070523;28;20067;-26
2023/01/31 07:40:35;;;;;;;12.38;5.95;;;;;;;3.55;72.02;99711.38;5070650;28;20024;-27
2023/01/31 07:43:00;;;;;;;12.50;5.50;;;;;;;3.42;71.27;99676.94;5070561;28;20115;-27
2023/01/31 07:45:26;;;;;;;13.35;6.88;;;;;;;3.42;71.61;99671.66;5070203;28;20020;-28
2023/01/31 07:47:52;;;;;;;12.38;4.78;;;;;;;3.51;70.98;99683.72;5070331;28;20484;-29
2023/01/31 07:50:18;;;;;;;13.57;5.28;;;;;;;3.44;71.82;99693.38;5070839;28;20024;-28
2023/01/31 07:52:43;;;;;;;11.38;5.72;;;;;;;3.73;71.99;99702.28;5082127;28;20032;-29
2023/01/31 07:55:09;;;;;;;13.25;6.38;;;;;;;3.60;72.44;99709.03;5089151;28;20020;-28
2023/01/31 07:57:34;;;;;;;11.35;5.43;;;;;;;3.69;72.74;99709.72;5070451;28;20507;-31
2023/01/31 08:00:00;;;;;;;15.43;6.18;;;;;;;3.73;72.00;99712.84;5089121;28;20016;-31
2023/01/31 08:05:10;;;;;;;11.35;5.57;;;;;;;3.74;71.78;99696.00;5087442;28;20105;-33
2023/01/31 08:07:36;;;;;;;15.13;6.38;;;;;;;3.76;72.20;99725.63;5070629;28;20040;-31
2023/01/31 08:10:02;;;;;;;14.93;6.85;;;;;;;3.81;72.85;99710.91;5088921;28;20055;-30
2023/01/31 08:12:28;;;;;;;15.45;6.90;;;;;;;3.97;72.35;99725.72;5070611;28;20597;-30
2023/01/31 08:14:53;;;;;;;11.20;5.85;;;;;;;3.79;71.80;99701.56;5071000;28;20030;-30
2023/01/31 08:17:19;;;;;;;10.98;4.72;;;;;;;3.88;72.49;99732.09;5089991;28;20035;-31
2023/01/31 08:19:44;;;;;;;11.27;5.75;;;;;;;3.93;71.42;99713.91;5089933;28;20028;-31
2023/01/31 08:22:10;;;;;;;16.30;6.45;;;;;;;4.00;72.12;99722.72;5087911;28;20545;-30
2023/01/31 08:24:36;;;;;;;21.67;9.07;;;;;;;4.10;71.59;99703.94;5089292;28;20480;-31
2023/01/31 08:27:01;;;;;;;12.30;6.22;;;;;;;4.14;71.27;99725.50;5088334;28;20031;-35
2023/01/31 08:29:26;;;;;;;11.57;5.18;;;;;;;4.25;71.62;99725.06;5087679;28;20027;-32
2023/01/31 08:31:52;;;;;;;11.70;5.32;;;;;;;4.28;70.61;99726.50;5088311;28;20051;-32
2023/01/31 08:34:18;;;;;;;13.80;6.30;;;;;;;4.14;71.39;99721.03;5088330;28;20024;-33
2023/01/31 08:36:44;;;;;;;12.27;5.40;;;;;;;4.42;70.79;99741.47;5061137;28;20089;-30
2023/01/31 08:39:10;;;;;;;15.73;5.38;;;;;;;4.33;70.48;99737.28;5069970;28;20082;-28
2023/01/31 08:41:36;;;;;;;10.95;4.60;;;;;;;4.27;69.88;99741.53;5087927;28;20058;-31
2023/01/31 08:44:03;;;;;;;9.75;4.18;;;;;;;4.23;69.00;99721.78;5088374;28;20106;-29
2023/01/31 08:46:31;;;;;;;10.93;5.47;;;;;;;4.49;70.23;99741.53;5085661;28;20028;-29
2023/01/31 08:48:57;;;;;;;10.15;5.07;;;;;;;4.46;69.14;99760.41;5069766;28;20016;-27
2023/01/31 08:51:23;;;;;;;10.48;3.97;;;;;;;4.55;69.01;99748.72;5089043;28;20115;-33
2023/01/31 08:53:48;;;;;;;12.55;5.53;;;;;;;4.47;69.09;99725.06;5088874;28;20062;-29
2023/01/31 08:56:14;;;;;;;10.45;4.60;;;;;;;4.58;68.71;99737.78;5069677;28;20032;-29
2023/01/31 08:58:42;;;;;;;11.27;5.03;;;;;;;4.46;68.03;99734.00;5070654;28;20012;-31
2023/01/31 09:01:13;;;;;;;9.90;5.18;;;;;;;4.79;68.86;99758.91;5085969;28;20024;-31
2023/01/31 09:03:40;;;;;;;11.18;5.57;;;;;;;4.74;66.84;99740.19;5088584;28;20024;-31
2023/01/31 09:06:11;;;;;;;10.50;5.00;;;;;;;4.65;67.83;99741.28;5088575;28;20026;-33
2023/01/31 09:08:36;;;;;;;11.40;4.47;;;;;;;4.95;68.54;99755.19;5070533;28;20059;-31
2023/01/31 09:11:02;;;;;;;8.85;4.55;;;;;;;5.03;67.38;99752.44;5088868;28;20115;-31
2023/01/31 09:13:29;;;;;;;11.15;4.30;;;;;;;5.08;65.60;99749.19;5065318;28;20046;-29
2023/01/31 09:16:05;;;;;;;12.18;4.53;;;;;;;5.13;67.39;99751.28;5070643;28;20031;-30
2023/01/31 09:18:33;;;;;;;10.02;4.60;;;;;;;5.30;67.26;99757.13;5070902;28;20463;-28
2023/01/31 09:21:11;;;;;;;10.43;3.60;;;;;;;5.35;66.25;99757.34;5070508;28;20053;-31
2023/01/31 09:23:37;;;;;;;9.30;3.67;;;;;;;5.31;66.00;99742.88;5085677;28;20066;-32
2023/01/31 09:26:02;;;;;;;9.27;4.30;;;;;;;5.30;65.94;99741.25;5069599;28;20032;-28
2023/01/31 09:28:28;;;;;;;9.93;3.97;;;;;;;5.38;66.48;99743.75;5087620;28;20080;-28
2023/01/31 09:30:54;;;;;;;8.27;3.92;;;;;;;5.54;67.53;99745.28;5088488;28;20028;-30
2023/01/31 09:33:21;;;;;;;10.25;5.00;;;;;;;5.63;64.93;99734.34;5088482;28;20530;-28
2023/01/31 09:35:59;;;;;;;12.83;5.37;;;;;;;5.98;66.27;99750.22;5073930;28;20028;-29
2023/01/31 09:38:24;;;;;;;10.13;5.10;;;;;;;6.29;65.11;99751.56;5074631;28;20040;-28
2023/01/31 09:40:52;;;;;;;8.68;4.47;;;;;;;6.53;62.37;99746.75;5074433;28;20028;-31
2023/01/31 09:43:23;;;;;;;10.55;4.10;;;;;;;6.30;63.22;99737.31;5092692;28;20032;-34
2023/01/31 09:45:52;;;;;;;11.95;5.22;;;;;;;6.39;64.97;99744.06;5092919;28;20115;-28
2023/01/31 09:48:23;;;;;;;8.65;4.10;;;;;;;6.07;63.50;99718.28;5074259;28;20036;-30
2023/01/31 09:50:55;;;;;;;8.07;4.05;;;;;;;6.39;63.51;99738.75;5074663;28;20130;-30
2023/01/31 09:53:27;;;;;;;10.63;3.97;;;;;;;6.42;62.85;99701.31;5074356;28;20088;-30
2023/01/31 09:56:08;;;;;;;10.35;4.95;;;;;;;7.14;63.88;99727.25;5093005;28;20024;-31
2023/01/31 09:58:33;;;;;;;11.60;5.03;;;;;;;7.21;59.93;99712.97;5074295;28;20672;-32
2023/01/31 10:01:14;;;;;;;9.80;4.35;;;;;;;7.55;58.68;99721.69;5092540;28;20035;-32
2023/01/31 10:04:14;;;;;;;8.68;4.38;;;;;;;7.88;58.06;99718.13;5073231;28;20054;-30
2023/01/31 10:06:52;;;;;;;8.95;4.28;;;;;;;7.68;56.75;99714.72;5008546;28;20097;-32
2023/01/31 10:09:43;;;;;;;11.32;4.68;;;;;;;8.14;57.82;99717.22;5062153;28;20040;-30
2023/01/31 10:12:21;;;;;;;7.03;3.38;;;;;;;8.19;55.31;99720.06;5055343;28;20036;-31
2023/01/31 10:14:58;;;;;;;7.05;3.00;;;;;;;8.06;55.90;99720.13;5090961;28;20028;-31
2023/01/31 10:17:37;;;;;;;8.38;3.28;;;;;;;8.08;53.79;99712.75;5073292;28;20181;-29
2023/01/31 10:20:41;;;;;;;8.75;2.60;;;;;;;8.15;52.85;99707.41;5073987;28;20182;-31
2023/01/31 10:23:31;;;;;;;7.03;3.00;;;;;;;8.54;54.00;99694.94;5060290;28;20127;-33
2023/01/31 10:26:03;;;;;;;7.25;3.55;;;;;;;8.74;52.05;99703.59;5091215;28;20119;-39
2023/01/31 10:28:38;;;;;;;8.45;3.97;;;;;;;8.72;53.43;99707.50;5091992;28;20062;-30
2023/01/31 10:31:24;;;;;;;7.18;3.22;;;;;;;8.79;51.86;99687.84;5072159;28;20040;-30
2023/01/31 10:34:03;;;;;;;8.30;3.47;;;;;;;8.79;49.79;99687.84;5066402;28;20074;-31
2023/01/31 10:36:48;;;;;;;7.68;2.97;;;;;;;8.60;51.94;99699.41;5072194;28;20046;-31
2023/01/31 10:39:13;;;;;;;8.63;3.90;;;;;;;8.89;51.68;99694.50;5072411;28;20032;-35
2023/01/31 10:41:53;;;;;;;11.70;4.53;;;;;;;9.57;51.78;99691.81;5072229;28;20028;-30
2023/01/31 10:44:33;;;;;;;8.57;4.07;;;;;;;9.38;47.97;99663.59;5088435;28;20040;-30
2023/01/31 10:46:59;;;;;;;9.48;4.20;;;;;;;9.08;48.81;99685.56;5072093;28;20140;-31
2023/01/31 10:49:27;;;;;;;7.38;3.38;;;;;;;9.10;49.82;99693.31;5090697;28;20077;-32
2023/01/31 10:52:15;;;;;;;9.60;4.03;;;;;;;9.41;51.11;99689.75;5090701;28;20036;-31
2023/01/31 10:54:47;;;;;;;10.23;4.00;;;;;;;10.12;50.77;99682.19;5060165;28;20552;-29
2023/01/31 10:57:14;;;;;;;9.27;3.70;;;;;;;10.71;48.64;99688.53;5069705;28;20036;-37
2023/01/31 10:59:43;;;;;;;8.52;3.40;;;;;;;10.48;45.54;99667.13;5090477;28;20024;-30
2023/01/31 11:02:22;;;;;;;8.32;3.10;;;;;;;9.13;48.12;99683.03;5071506;28;20040;-34
2023/01/31 11:04:51;;;;;;;8.00;3.80;;;;;;;9.02;49.51;99686.41;5070872;28;20055;-32
2023/01/31 11:07:16;;;;;;;8.68;4.82;;;;;;;8.64;49.93;99642.13;5087296;28;20027;-32
2023/01/31 11:09:47;;;;;;;10.15;5.20;;;;;;;8.74;48.84;99658.41;5090064;28;20020;-33
2023/01/31 11:12:12;;;;;;;7.45;3.25;;;;;;;9.76;48.47;99668.66;5071869;28;20024;-30
2023/01/31 11:14:38;;;;;;;7.40;3.88;;;;;;;10.30;47.20;99674.16;5071965;28;20097;-33
2023/01/31 11:17:11;;;;;;;7.53;3.30;;;;;;;9.35;44.87;99678.13;5090042;28;20043;-30
2023/01/31 11:19:43;;;;;;;12.60;7.55;;;;;;;9.04;45.50;99679.84;5052647;28;20031;-29
2023/01/31 11:22:29;;;;;;;13.02;7.60;;;;;;;8.94;46.52;99673.41;5072415;28;20697;-30
2023/01/31 11:24:57;;;;;;;9.15;4.53;;;;;;;8.67;46.44;99657.66;5071603;28;20088;-31
2023/01/31 11:27:32;;;;;;;5.15;2.67;;;;;;;8.75;47.27;99670.69;5071287;28;20031;-30
2023/01/31 11:29:58;;;;;;;7.60;3.35;;;;;;;9.05;47.29;99676.16;5071454;28;20019;-31
2023/01/31 11:32:30;;;;;;;5.28;2.42;;;;;;;8.71;46.94;99650.06;5090452;28;20036;-30
2023/01/31 11:35:05;;;;;;;4.05;2.30;;;;;;;9.74;45.80;99677.91;5090813;28;20024;-30
2023/01/31 11:37:32;;;;;;;5.90;2.30;;;;;;;10.28;44.38;99678.88;5072145;28;20052;-30
2023/01/31 11:40:25;;;;;;;9.27;4.63;;;;;;;10.09;45.01;99669.28;5072592;28;20024;-31
2023/01/31 11:42:54;;;;;;;6.90;4.38;;;;;;;9.98;44.79;99663.69;5090567;28;20470;-31
2023/01/31 11:45:23;;;;;;;6.60;3.88;;;;;;;10.38;43.28;99662.34;5072029;28;20036;-30
2023/01/31 11:47:50;;;;;;;;;;;;;;;10.93;44.16;99666.63;5072956;28;20089;-30
2023/01/31 11:50:25;;;;;;;6.13;3.47;;;;;;;11.29;43.28;99664.78;5090525;28;20386;-29